Impacts METAR Board
IDs:

KMDW - Chicago/Midway Intl, IL, US

Updated at: 0100 UTC 31 May 2020
Potential Impact None Slight Moderate High
Time 30/13Z 30/14Z 30/15Z 30/16Z 30/17Z 30/18Z 30/19Z 30/20Z 30/21Z 30/22Z 30/23Z 31/00Z 31/01Z
Temp62 64 67 68 69 71 68 68 68 65 64 64 61
Dewpt50 49 48 48 47 47 50 49 48 47 47 45 45
Altim30.18 30.19 30.18 30.17 30.17 30.16 30.16 30.16 30.16 30.17 30.17 30.18 30.19
VIS10 10 10 10 10 10 10 10 10 10 10 10 10
CIG-- -- -- 47 47 55 60 65 -- -- -- -- --
CoverFEWFEWSCTBKNBKNBKNOVCBKNSCTFEWFEWFEWFEW
FltCatVFRVFRVFRVFRVFRVFRVFRVFRVFRVFRVFRVFRVFR
WX--------------------------
WDir34032031032033030007060901007070
WSpd4 5 4 5 10 9 4 10 12 11 9 8 10
WGst-- -- -- -- -- -- -- -- -- -- -- -- --
Raw hourly METARs
KMDW 301253Z 34004KT 10SM FEW020 FEW070 FEW250 17/10 A3018 RMK AO2 SLP216 T01670100 $
KMDW 301353Z 32005KT 10SM FEW025 FEW070 FEW250 18/09 A3019 RMK AO2 SLP219 T01780094 $
KMDW 301453Z 31004KT 10SM SCT037 SCT070 SCT250 19/09 A3018 RMK AO2 SLP216 T01940089 50003 $
KMDW 301553Z 32005KT 10SM BKN047 BKN070 20/09 A3017 RMK AO2 SLP213 T02000089 $
KMDW 301653Z 33010KT 10SM BKN047 BKN065 21/08 A3017 RMK AO2 SLP212 T02060083 $
KMDW 301753Z 30009KT 10SM BKN055 BKN070 22/08 A3016 RMK AO2 SLP210 T02170083 10222 20150 56006 $
KMDW 301853Z VRB04KT 10SM BKN060 OVC075 20/10 A3016 RMK AO2 SLP210 T02000100 $
KMDW 301953Z 07010KT 10SM BKN065 BKN080 20/09 A3016 RMK AO2 SLP211 T02000094 $
KMDW 302053Z 06012KT 10SM SCT070 20/09 A3016 RMK AO2 SLP211 T02000089 57001 $
KMDW 302153Z 09011KT 10SM FEW070 FEW250 18/08 A3017 RMK AO2 SLP215 T01830083 $
KMDW 302253Z 10009KT 10SM FEW070 18/08 A3017 RMK AO2 SLP214 T01780083 $
KMDW 302353Z 07008KT 10SM FEW070 18/07 A3018 RMK AO2 SLP217 T01780072 10222 20178 51006 $
KMDW 310053Z 07010KT 10SM FEW005 FEW070 16/07 A3019 RMK AO2 SLP221 FU FEW005 T01610072 $



Page loaded:  01:51 UTC  |   06:51 PM Pacific  |   07:51 PM Mountain  |   08:51 PM Central  |   09:51 PM Eastern

 

ADVISORIES

FORECASTS

FORECASTS

OBSERVATIONS

USER TOOLS

ABOUT US